sensor_id;sensor_type;location;lat;lon;timestamp;P1;durP1;ratioP1;P2;durP2;ratioP2
19173;SDS011;9719;49.322;8.536;2022-08-14T00:00:51;3.47;;;3.17;;
19173;SDS011;9719;49.322;8.536;2022-08-14T00:05:55;2.92;;;2.72;;
19173;SDS011;9719;49.322;8.536;2022-08-14T00:10:58;3.90;;;2.97;;
19173;SDS011;9719;49.322;8.536;2022-08-14T00:16:00;3.65;;;3.35;;
19173;SDS011;9719;49.322;8.536;2022-08-14T00:21:04;2.97;;;2.70;;
19173;SDS011;9719;49.322;8.536;2022-08-14T00:26:06;3.42;;;3.15;;
19173;SDS011;9719;49.322;8.536;2022-08-14T00:31:08;3.28;;;2.92;;
19173;SDS011;9719;49.322;8.536;2022-08-14T00:36:12;3.40;;;3.10;;
19173;SDS011;9719;49.322;8.536;2022-08-14T00:41:14;3.47;;;3.17;;
19173;SDS011;9719;49.322;8.536;2022-08-14T00:46:18;3.08;;;2.78;;
19173;SDS011;9719;49.322;8.536;2022-08-14T00:51:21;3.50;;;3.20;;
19173;SDS011;9719;49.322;8.536;2022-08-14T00:56:23;3.47;;;3.05;;
19173;SDS011;9719;49.322;8.536;2022-08-14T01:01:25;3.08;;;2.80;;
19173;SDS011;9719;49.322;8.536;2022-08-14T01:06:30;3.70;;;2.97;;
19173;SDS011;9719;49.322;8.536;2022-08-14T01:16:59;3.75;;;2.95;;
19173;SDS011;9719;49.322;8.536;2022-08-14T01:22:02;2.90;;;2.70;;
19173;SDS011;9719;49.322;8.536;2022-08-14T01:27:06;3.70;;;3.40;;
19173;SDS011;9719;49.322;8.536;2022-08-14T01:32:14;3.30;;;3.00;;
19173;SDS011;9719;49.322;8.536;2022-08-14T01:37:18;3.53;;;3.22;;
19173;SDS011;9719;49.322;8.536;2022-08-14T01:42:22;3.53;;;3.22;;
19173;SDS011;9719;49.322;8.536;2022-08-14T01:47:28;4.28;;;3.75;;
19173;SDS011;9719;49.322;8.536;2022-08-14T01:52:33;4.25;;;3.85;;
19173;SDS011;9719;49.322;8.536;2022-08-14T01:57:36;3.80;;;3.50;;
19173;SDS011;9719;49.322;8.536;2022-08-14T02:02:38;4.25;;;3.83;;
19173;SDS011;9719;49.322;8.536;2022-08-14T02:07:41;4.85;;;3.95;;
19173;SDS011;9719;49.322;8.536;2022-08-14T02:12:44;3.92;;;3.63;;
19173;SDS011;9719;49.322;8.536;2022-08-14T02:17:46;3.95;;;3.65;;
19173;SDS011;9719;49.322;8.536;2022-08-14T02:22:50;4.30;;;3.90;;
19173;SDS011;9719;49.322;8.536;2022-08-14T02:27:53;4.22;;;3.75;;
19173;SDS011;9719;49.322;8.536;2022-08-14T02:32:55;3.92;;;3.63;;
19173;SDS011;9719;49.322;8.536;2022-08-14T02:37:59;3.58;;;3.28;;
19173;SDS011;9719;49.322;8.536;2022-08-14T02:43:01;3.90;;;3.60;;
19173;SDS011;9719;49.322;8.536;2022-08-14T02:48:04;4.53;;;3.47;;
19173;SDS011;9719;49.322;8.536;2022-08-14T02:53:08;4.05;;;3.65;;
19173;SDS011;9719;49.322;8.536;2022-08-14T02:58:10;4.07;;;3.67;;
19173;SDS011;9719;49.322;8.536;2022-08-14T03:03:12;3.83;;;3.53;;
19173;SDS011;9719;49.322;8.536;2022-08-14T03:08:17;6.95;;;3.50;;
19173;SDS011;9719;49.322;8.536;2022-08-14T03:13:19;4.40;;;3.92;;
19173;SDS011;9719;49.322;8.536;2022-08-14T03:18:21;4.38;;;4.03;;
19173;SDS011;9719;49.322;8.536;2022-08-14T03:23:26;4.65;;;3.30;;
19173;SDS011;9719;49.322;8.536;2022-08-14T03:28:34;4.32;;;3.97;;
19173;SDS011;9719;49.322;8.536;2022-08-14T03:33:38;4.00;;;3.70;;
19173;SDS011;9719;49.322;8.536;2022-08-14T03:38:43;4.75;;;4.28;;
19173;SDS011;9719;49.322;8.536;2022-08-14T03:43:47;4.35;;;3.95;;
19173;SDS011;9719;49.322;8.536;2022-08-14T03:48:50;4.20;;;3.80;;
19173;SDS011;9719;49.322;8.536;2022-08-14T03:53:55;4.40;;;4.07;;
19173;SDS011;9719;49.322;8.536;2022-08-14T03:58:59;3.95;;;3.65;;
19173;SDS011;9719;49.322;8.536;2022-08-14T04:04:10;4.57;;;4.20;;
19173;SDS011;9719;49.322;8.536;2022-08-14T04:09:13;4.93;;;4.18;;
19173;SDS011;9719;49.322;8.536;2022-08-14T04:14:15;5.18;;;4.68;;
19173;SDS011;9719;49.322;8.536;2022-08-14T04:19:17;4.53;;;4.13;;
19173;SDS011;9719;49.322;8.536;2022-08-14T04:24:24;4.43;;;4.03;;
19173;SDS011;9719;49.322;8.536;2022-08-14T04:29:26;3.90;;;3.50;;
19173;SDS011;9719;49.322;8.536;2022-08-14T04:34:28;7.20;;;4.93;;
19173;SDS011;9719;49.322;8.536;2022-08-14T04:39:31;4.50;;;4.18;;
19173;SDS011;9719;49.322;8.536;2022-08-14T04:44:50;4.25;;;3.80;;
19173;SDS011;9719;49.322;8.536;2022-08-14T04:49:52;4.55;;;4.07;;
19173;SDS011;9719;49.322;8.536;2022-08-14T04:54:55;5.10;;;4.70;;
19173;SDS011;9719;49.322;8.536;2022-08-14T04:59:58;4.32;;;3.95;;
19173;SDS011;9719;49.322;8.536;2022-08-14T05:05:00;5.10;;;4.57;;
19173;SDS011;9719;49.322;8.536;2022-08-14T05:10:04;4.80;;;4.18;;
19173;SDS011;9719;49.322;8.536;2022-08-14T05:15:06;5.15;;;4.65;;
19173;SDS011;9719;49.322;8.536;2022-08-14T05:20:09;9.00;;;4.18;;
19173;SDS011;9719;49.322;8.536;2022-08-14T05:25:13;4.63;;;4.22;;
19173;SDS011;9719;49.322;8.536;2022-08-14T05:30:15;4.65;;;4.25;;
19173;SDS011;9719;49.322;8.536;2022-08-14T05:35:19;4.88;;;4.45;;
19173;SDS011;9719;49.322;8.536;2022-08-14T05:40:22;4.65;;;4.30;;
19173;SDS011;9719;49.322;8.536;2022-08-14T05:45:24;5.43;;;4.43;;
19173;SDS011;9719;49.322;8.536;2022-08-14T05:50:26;7.07;;;5.13;;
19173;SDS011;9719;49.322;8.536;2022-08-14T05:55:29;7.68;;;5.40;;
19173;SDS011;9719;49.322;8.536;2022-08-14T06:00:32;5.15;;;4.72;;
19173;SDS011;9719;49.322;8.536;2022-08-14T06:05:36;5.47;;;4.78;;
19173;SDS011;9719;49.322;8.536;2022-08-14T06:10:41;4.60;;;4.20;;
19173;SDS011;9719;49.322;8.536;2022-08-14T06:15:44;6.80;;;4.80;;
19173;SDS011;9719;49.322;8.536;2022-08-14T06:20:46;5.35;;;4.95;;
19173;SDS011;9719;49.322;8.536;2022-08-14T06:25:49;4.93;;;4.40;;
19173;SDS011;9719;49.322;8.536;2022-08-14T06:30:52;5.03;;;4.45;;
19173;SDS011;9719;49.322;8.536;2022-08-14T06:35:54;6.45;;;5.88;;
19173;SDS011;9719;49.322;8.536;2022-08-14T06:40:58;4.47;;;4.07;;
19173;SDS011;9719;49.322;8.536;2022-08-14T06:46:00;5.13;;;4.63;;
19173;SDS011;9719;49.322;8.536;2022-08-14T06:51:03;6.25;;;4.28;;
19173;SDS011;9719;49.322;8.536;2022-08-14T06:56:06;6.25;;;4.32;;
19173;SDS011;9719;49.322;8.536;2022-08-14T07:01:08;4.60;;;4.30;;
19173;SDS011;9719;49.322;8.536;2022-08-14T07:06:27;5.20;;;4.70;;
19173;SDS011;9719;49.322;8.536;2022-08-14T07:11:31;5.45;;;4.95;;
19173;SDS011;9719;49.322;8.536;2022-08-14T07:16:34;4.90;;;4.25;;
19173;SDS011;9719;49.322;8.536;2022-08-14T07:21:36;5.75;;;4.57;;
19173;SDS011;9719;49.322;8.536;2022-08-14T07:26:40;5.00;;;4.60;;
19173;SDS011;9719;49.322;8.536;2022-08-14T07:31:42;5.20;;;4.78;;
19173;SDS011;9719;49.322;8.536;2022-08-14T07:36:44;5.90;;;5.30;;
19173;SDS011;9719;49.322;8.536;2022-08-14T07:41:48;6.53;;;5.53;;
19173;SDS011;9719;49.322;8.536;2022-08-14T07:46:50;5.40;;;4.90;;
19173;SDS011;9719;49.322;8.536;2022-08-14T07:51:52;5.60;;;5.00;;
19173;SDS011;9719;49.322;8.536;2022-08-14T07:56:57;5.57;;;5.00;;
19173;SDS011;9719;49.322;8.536;2022-08-14T08:01:59;4.80;;;4.30;;
19173;SDS011;9719;49.322;8.536;2022-08-14T08:07:03;4.95;;;4.45;;
19173;SDS011;9719;49.322;8.536;2022-08-14T08:12:07;4.88;;;4.13;;
19173;SDS011;9719;49.322;8.536;2022-08-14T08:17:10;5.53;;;4.90;;
19173;SDS011;9719;49.322;8.536;2022-08-14T08:22:12;4.95;;;4.53;;
19173;SDS011;9719;49.322;8.536;2022-08-14T08:27:17;4.00;;;3.70;;
19173;SDS011;9719;49.322;8.536;2022-08-14T08:32:20;8.43;;;4.68;;
19173;SDS011;9719;49.322;8.536;2022-08-14T08:37:22;9.60;;;5.20;;
19173;SDS011;9719;49.322;8.536;2022-08-14T08:42:25;3.75;;;3.45;;
19173;SDS011;9719;49.322;8.536;2022-08-14T08:47:36;4.18;;;3.63;;
19173;SDS011;9719;49.322;8.536;2022-08-14T08:52:45;8.45;;;4.57;;
19173;SDS011;9719;49.322;8.536;2022-08-14T08:57:53;4.68;;;3.95;;
19173;SDS011;9719;49.322;8.536;2022-08-14T09:02:57;3.10;;;2.65;;
19173;SDS011;9719;49.322;8.536;2022-08-14T09:08:08;2.22;;;2.00;;
19173;SDS011;9719;49.322;8.536;2022-08-14T09:13:13;2.80;;;2.60;;
19173;SDS011;9719;49.322;8.536;2022-08-14T09:18:16;2.50;;;2.30;;
19173;SDS011;9719;49.322;8.536;2022-08-14T09:23:21;3.03;;;2.35;;
19173;SDS011;9719;49.322;8.536;2022-08-14T09:28:25;2.67;;;2.45;;
19173;SDS011;9719;49.322;8.536;2022-08-14T09:39:04;2.17;;;2.08;;
19173;SDS011;9719;49.322;8.536;2022-08-14T09:44:15;2.20;;;1.70;;
19173;SDS011;9719;49.322;8.536;2022-08-14T09:49:29;2.25;;;1.80;;
19173;SDS011;9719;49.322;8.536;2022-08-14T09:54:36;2.15;;;1.98;;
19173;SDS011;9719;49.322;8.536;2022-08-14T09:59:41;2.05;;;1.90;;
19173;SDS011;9719;49.322;8.536;2022-08-14T10:04:45;1.90;;;1.80;;
19173;SDS011;9719;49.322;8.536;2022-08-14T10:09:48;1.58;;;1.48;;
19173;SDS011;9719;49.322;8.536;2022-08-14T10:14:51;1.98;;;1.73;;
19173;SDS011;9719;49.322;8.536;2022-08-14T10:19:53;1.70;;;1.40;;
19173;SDS011;9719;49.322;8.536;2022-08-14T10:24:55;1.80;;;1.70;;
19173;SDS011;9719;49.322;8.536;2022-08-14T10:30:00;2.28;;;1.80;;
19173;SDS011;9719;49.322;8.536;2022-08-14T10:35:04;2.53;;;1.52;;
19173;SDS011;9719;49.322;8.536;2022-08-14T10:40:08;2.53;;;1.80;;
19173;SDS011;9719;49.322;8.536;2022-08-14T10:45:19;1.58;;;1.38;;
19173;SDS011;9719;49.322;8.536;2022-08-14T10:50:28;1.58;;;1.48;;
19173;SDS011;9719;49.322;8.536;2022-08-14T10:55:31;1.70;;;1.60;;
19173;SDS011;9719;49.322;8.536;2022-08-14T11:00:40;2.20;;;1.38;;
19173;SDS011;9719;49.322;8.536;2022-08-14T11:05:43;2.72;;;1.23;;
19173;SDS011;9719;49.322;8.536;2022-08-14T11:10:48;1.40;;;1.30;;
19173;SDS011;9719;49.322;8.536;2022-08-14T11:15:57;1.60;;;1.50;;
19173;SDS011;9719;49.322;8.536;2022-08-14T11:21:00;1.77;;;1.63;;
19173;SDS011;9719;49.322;8.536;2022-08-14T11:26:02;2.38;;;1.60;;
19173;SDS011;9719;49.322;8.536;2022-08-14T11:31:08;1.98;;;1.88;;
19173;SDS011;9719;49.322;8.536;2022-08-14T11:36:12;1.67;;;1.58;;
19173;SDS011;9719;49.322;8.536;2022-08-14T11:41:15;2.28;;;2.08;;
19173;SDS011;9719;49.322;8.536;2022-08-14T11:46:18;1.50;;;1.40;;
19173;SDS011;9719;49.322;8.536;2022-08-14T11:51:22;1.50;;;1.40;;
19173;SDS011;9719;49.322;8.536;2022-08-14T11:56:32;2.13;;;1.65;;
19173;SDS011;9719;49.322;8.536;2022-08-14T12:01:38;2.45;;;2.22;;
19173;SDS011;9719;49.322;8.536;2022-08-14T12:06:46;2.00;;;1.90;;
19173;SDS011;9719;49.322;8.536;2022-08-14T12:11:51;1.60;;;1.50;;
19173;SDS011;9719;49.322;8.536;2022-08-14T12:16:59;1.90;;;1.80;;
19173;SDS011;9719;49.322;8.536;2022-08-14T12:22:03;1.80;;;1.70;;
19173;SDS011;9719;49.322;8.536;2022-08-14T12:27:05;4.15;;;2.00;;
19173;SDS011;9719;49.322;8.536;2022-08-14T12:32:09;1.42;;;1.33;;
19173;SDS011;9719;49.322;8.536;2022-08-14T12:37:11;1.48;;;1.38;;
19173;SDS011;9719;49.322;8.536;2022-08-14T12:42:13;3.40;;;1.75;;
19173;SDS011;9719;49.322;8.536;2022-08-14T12:47:17;3.58;;;2.60;;
19173;SDS011;9719;49.322;8.536;2022-08-14T12:52:30;1.83;;;1.73;;
19173;SDS011;9719;49.322;8.536;2022-08-14T12:57:35;1.60;;;1.50;;
19173;SDS011;9719;49.322;8.536;2022-08-14T13:02:39;2.67;;;1.98;;
19173;SDS011;9719;49.322;8.536;2022-08-14T13:07:42;1.48;;;1.38;;
19173;SDS011;9719;49.322;8.536;2022-08-14T13:12:44;4.80;;;2.00;;
19173;SDS011;9719;49.322;8.536;2022-08-14T13:17:48;2.15;;;1.50;;
19173;SDS011;9719;49.322;8.536;2022-08-14T13:22:53;2.13;;;2.03;;
19173;SDS011;9719;49.322;8.536;2022-08-14T13:27:56;1.50;;;1.40;;
19173;SDS011;9719;49.322;8.536;2022-08-14T13:33:01;2.03;;;1.67;;
19173;SDS011;9719;49.322;8.536;2022-08-14T13:38:04;1.90;;;1.70;;
19173;SDS011;9719;49.322;8.536;2022-08-14T13:43:08;3.03;;;1.77;;
19173;SDS011;9719;49.322;8.536;2022-08-14T13:48:14;1.85;;;1.45;;
19173;SDS011;9719;49.322;8.536;2022-08-14T13:53:17;2.40;;;1.70;;
19173;SDS011;9719;49.322;8.536;2022-08-14T13:58:23;1.52;;;1.42;;
19173;SDS011;9719;49.322;8.536;2022-08-14T14:03:28;1.95;;;1.48;;
19173;SDS011;9719;49.322;8.536;2022-08-14T14:08:32;1.70;;;1.60;;
19173;SDS011;9719;49.322;8.536;2022-08-14T14:13:36;1.58;;;1.48;;
19173;SDS011;9719;49.322;8.536;2022-08-14T14:18:40;1.50;;;1.40;;
19173;SDS011;9719;49.322;8.536;2022-08-14T14:23:42;1.73;;;1.35;;
19173;SDS011;9719;49.322;8.536;2022-08-14T14:28:47;1.55;;;1.45;;
19173;SDS011;9719;49.322;8.536;2022-08-14T14:33:55;1.80;;;1.70;;
19173;SDS011;9719;49.322;8.536;2022-08-14T14:38:58;1.88;;;1.50;;
19173;SDS011;9719;49.322;8.536;2022-08-14T14:44:02;1.80;;;1.40;;
19173;SDS011;9719;49.322;8.536;2022-08-14T14:49:08;1.67;;;1.55;;
19173;SDS011;9719;49.322;8.536;2022-08-14T14:54:13;11.77;;;2.55;;
19173;SDS011;9719;49.322;8.536;2022-08-14T14:59:18;1.52;;;1.42;;
19173;SDS011;9719;49.322;8.536;2022-08-14T15:04:21;1.95;;;1.85;;
19173;SDS011;9719;49.322;8.536;2022-08-14T15:09:25;1.45;;;1.35;;
19173;SDS011;9719;49.322;8.536;2022-08-14T15:14:27;1.48;;;1.38;;
19173;SDS011;9719;49.322;8.536;2022-08-14T15:19:30;1.67;;;1.30;;
19173;SDS011;9719;49.322;8.536;2022-08-14T15:24:32;1.50;;;1.40;;
19173;SDS011;9719;49.322;8.536;2022-08-14T15:29:34;1.75;;;1.65;;
19173;SDS011;9719;49.322;8.536;2022-08-14T15:34:39;1.95;;;1.52;;
19173;SDS011;9719;49.322;8.536;2022-08-14T15:39:44;1.55;;;1.45;;
19173;SDS011;9719;49.322;8.536;2022-08-14T15:44:48;1.67;;;1.50;;
19173;SDS011;9719;49.322;8.536;2022-08-14T15:49:53;1.50;;;1.27;;
19173;SDS011;9719;49.322;8.536;2022-08-14T15:54:55;1.42;;;1.33;;
19173;SDS011;9719;49.322;8.536;2022-08-14T16:00:00;1.20;;;1.20;;
19173;SDS011;9719;49.322;8.536;2022-08-14T16:05:22;1.73;;;1.63;;
19173;SDS011;9719;49.322;8.536;2022-08-14T16:10:31;10.25;;;2.45;;
19173;SDS011;9719;49.322;8.536;2022-08-14T16:15:40;1.63;;;1.52;;
19173;SDS011;9719;49.322;8.536;2022-08-14T16:20:44;5.78;;;1.38;;
19173;SDS011;9719;49.322;8.536;2022-08-14T16:25:51;1.42;;;1.33;;
19173;SDS011;9719;49.322;8.536;2022-08-14T16:30:55;1.80;;;1.42;;
19173;SDS011;9719;49.322;8.536;2022-08-14T16:36:00;2.03;;;1.60;;
19173;SDS011;9719;49.322;8.536;2022-08-14T16:41:05;4.05;;;2.28;;
19173;SDS011;9719;49.322;8.536;2022-08-14T16:46:26;11.77;;;2.00;;
19173;SDS011;9719;49.322;8.536;2022-08-14T16:51:32;4.22;;;1.80;;
19173;SDS011;9719;49.322;8.536;2022-08-14T16:56:35;3.60;;;2.40;;
19173;SDS011;9719;49.322;8.536;2022-08-14T17:01:38;19.98;;;4.07;;
19173;SDS011;9719;49.322;8.536;2022-08-14T17:06:44;20.73;;;4.65;;
19173;SDS011;9719;49.322;8.536;2022-08-14T17:11:50;1.45;;;1.33;;
19173;SDS011;9719;49.322;8.536;2022-08-14T17:16:56;2.42;;;1.90;;
19173;SDS011;9719;49.322;8.536;2022-08-14T17:22:00;5.53;;;1.67;;
19173;SDS011;9719;49.322;8.536;2022-08-14T17:27:04;2.47;;;1.52;;
19173;SDS011;9719;49.322;8.536;2022-08-14T17:32:09;6.40;;;2.03;;
19173;SDS011;9719;49.322;8.536;2022-08-14T17:37:24;4.88;;;1.88;;
19173;SDS011;9719;49.322;8.536;2022-08-14T17:47:49;1.52;;;1.42;;
19173;SDS011;9719;49.322;8.536;2022-08-14T17:52:53;2.95;;;1.35;;
19173;SDS011;9719;49.322;8.536;2022-08-14T17:57:55;2.17;;;1.60;;
19173;SDS011;9719;49.322;8.536;2022-08-14T18:02:57;2.45;;;1.70;;
19173;SDS011;9719;49.322;8.536;2022-08-14T18:08:02;2.53;;;1.83;;
19173;SDS011;9719;49.322;8.536;2022-08-14T18:13:07;3.42;;;1.80;;
19173;SDS011;9719;49.322;8.536;2022-08-14T18:18:10;2.00;;;1.90;;
19173;SDS011;9719;49.322;8.536;2022-08-14T18:23:14;2.92;;;1.90;;
19173;SDS011;9719;49.322;8.536;2022-08-14T18:28:18;2.42;;;2.22;;
19173;SDS011;9719;49.322;8.536;2022-08-14T18:33:22;2.75;;;1.98;;
19173;SDS011;9719;49.322;8.536;2022-08-14T18:38:27;2.67;;;1.77;;
19173;SDS011;9719;49.322;8.536;2022-08-14T18:43:42;2.67;;;1.88;;
19173;SDS011;9719;49.322;8.536;2022-08-14T18:48:45;2.03;;;1.92;;
19173;SDS011;9719;49.322;8.536;2022-08-14T18:54:27;3.15;;;2.40;;
19173;SDS011;9719;49.322;8.536;2022-08-14T18:59:31;2.30;;;2.10;;
19173;SDS011;9719;49.322;8.536;2022-08-14T19:04:38;1.73;;;1.63;;
19173;SDS011;9719;49.322;8.536;2022-08-14T19:09:55;2.13;;;2.00;;
19173;SDS011;9719;49.322;8.536;2022-08-14T19:15:05;1.90;;;1.80;;
19173;SDS011;9719;49.322;8.536;2022-08-14T19:20:09;1.95;;;1.85;;
19173;SDS011;9719;49.322;8.536;2022-08-14T19:30:50;1.90;;;1.80;;
19173;SDS011;9719;49.322;8.536;2022-08-14T19:36:14;3.15;;;1.98;;
19173;SDS011;9719;49.322;8.536;2022-08-14T19:41:18;2.55;;;1.88;;
19173;SDS011;9719;49.322;8.536;2022-08-14T19:46:27;2.15;;;1.70;;
19173;SDS011;9719;49.322;8.536;2022-08-14T19:51:38;2.30;;;1.90;;
19173;SDS011;9719;49.322;8.536;2022-08-14T19:56:42;2.42;;;1.85;;
19173;SDS011;9719;49.322;8.536;2022-08-14T20:01:48;2.35;;;1.90;;
19173;SDS011;9719;49.322;8.536;2022-08-14T20:06:51;3.53;;;1.70;;
19173;SDS011;9719;49.322;8.536;2022-08-14T20:11:55;2.63;;;1.70;;
19173;SDS011;9719;49.322;8.536;2022-08-14T20:16:57;1.70;;;1.60;;
19173;SDS011;9719;49.322;8.536;2022-08-14T20:22:01;2.42;;;1.77;;
19173;SDS011;9719;49.322;8.536;2022-08-14T20:27:15;2.25;;;1.80;;
19173;SDS011;9719;49.322;8.536;2022-08-14T20:32:21;1.55;;;1.40;;
19173;SDS011;9719;49.322;8.536;2022-08-14T20:37:32;3.05;;;1.63;;
19173;SDS011;9719;49.322;8.536;2022-08-14T20:42:37;2.13;;;1.92;;
19173;SDS011;9719;49.322;8.536;2022-08-14T20:47:57;2.92;;;2.13;;
19173;SDS011;9719;49.322;8.536;2022-08-14T20:53:01;2.03;;;1.60;;
19173;SDS011;9719;49.322;8.536;2022-08-14T20:58:37;2.08;;;1.55;;
19173;SDS011;9719;49.322;8.536;2022-08-14T21:03:50;2.75;;;2.00;;
19173;SDS011;9719;49.322;8.536;2022-08-14T21:08:53;1.63;;;1.52;;
19173;SDS011;9719;49.322;8.536;2022-08-14T21:13:58;1.88;;;1.63;;
19173;SDS011;9719;49.322;8.536;2022-08-14T21:19:01;2.40;;;2.08;;
19173;SDS011;9719;49.322;8.536;2022-08-14T21:24:04;5.20;;;1.90;;
19173;SDS011;9719;49.322;8.536;2022-08-14T21:29:06;1.70;;;1.60;;
19173;SDS011;9719;49.322;8.536;2022-08-14T21:34:11;2.40;;;1.63;;
19173;SDS011;9719;49.322;8.536;2022-08-14T21:39:14;2.45;;;1.95;;
19173;SDS011;9719;49.322;8.536;2022-08-14T21:44:17;1.60;;;1.50;;
19173;SDS011;9719;49.322;8.536;2022-08-14T21:49:22;2.03;;;1.80;;
19173;SDS011;9719;49.322;8.536;2022-08-14T21:54:27;3.70;;;1.63;;
19173;SDS011;9719;49.322;8.536;2022-08-14T21:59:31;1.70;;;1.60;;
19173;SDS011;9719;49.322;8.536;2022-08-14T22:04:37;2.05;;;1.80;;
19173;SDS011;9719;49.322;8.536;2022-08-14T22:09:40;4.25;;;1.90;;
19173;SDS011;9719;49.322;8.536;2022-08-14T22:14:42;3.28;;;2.08;;
19173;SDS011;9719;49.322;8.536;2022-08-14T22:19:45;3.35;;;2.05;;
19173;SDS011;9719;49.322;8.536;2022-08-14T22:24:47;2.25;;;2.03;;
19173;SDS011;9719;49.322;8.536;2022-08-14T22:29:49;2.00;;;1.90;;
19173;SDS011;9719;49.322;8.536;2022-08-14T22:34:53;2.20;;;1.98;;
19173;SDS011;9719;49.322;8.536;2022-08-14T22:39:55;2.85;;;2.05;;
19173;SDS011;9719;49.322;8.536;2022-08-14T22:44:56;3.65;;;2.58;;
19173;SDS011;9719;49.322;8.536;2022-08-14T22:50:00;2.45;;;2.15;;
19173;SDS011;9719;49.322;8.536;2022-08-14T22:55:02;3.47;;;2.08;;
19173;SDS011;9719;49.322;8.536;2022-08-14T23:00:08;2.40;;;2.13;;
19173;SDS011;9719;49.322;8.536;2022-08-14T23:05:14;4.00;;;2.50;;
19173;SDS011;9719;49.322;8.536;2022-08-14T23:10:16;3.58;;;2.72;;
19173;SDS011;9719;49.322;8.536;2022-08-14T23:15:18;3.55;;;2.60;;
19173;SDS011;9719;49.322;8.536;2022-08-14T23:20:23;2.60;;;2.38;;
19173;SDS011;9719;49.322;8.536;2022-08-14T23:25:26;4.60;;;3.00;;
19173;SDS011;9719;49.322;8.536;2022-08-14T23:30:30;3.72;;;2.85;;
19173;SDS011;9719;49.322;8.536;2022-08-14T23:35:33;3.05;;;2.00;;
19173;SDS011;9719;49.322;8.536;2022-08-14T23:40:40;2.45;;;2.10;;
19173;SDS011;9719;49.322;8.536;2022-08-14T23:45:44;6.00;;;2.38;;
19173;SDS011;9719;49.322;8.536;2022-08-14T23:50:49;2.70;;;2.50;;
19173;SDS011;9719;49.322;8.536;2022-08-14T23:55:52;2.88;;;2.10;;
